Airfield :
LOGIN :

Register | Disclaimer

   EN    FR    IT 

 










Legend :    VFR   Marginal VFR   IFR   Intensive IFR   Very Intensive IFR
Visi :
Ceiling :
>= 8 km
>= 3000ft
5 to 8 km
1000 to 3000 ft
1500m to 5 km
500 to 1000 ft
800 to 1500m
200 to 500 ft
< 800m
< 200 ft
Symbols :   Thunderstorms  Fog  Heavy snow  Heavy precipitations  Wind > 20 kt
SIGMETs :     Misc.  Thunderstorms  Icing  Turbulence  Mountain Waves  Volcanic Ashes






- Airport Elevation : 302 ft
- IATA code : CGN


EDDK - Cologne Bonn

CURRENT METAR :
  • 211250Z 13007KT 090V160 CAVOK 07/03 Q1007 NOSIG

EXPIRED METARs :
  • 211220Z 13008KT 090V160 CAVOK 06/02 Q1008 NOSIG
  • 211150Z 14009KT CAVOK 06/02 Q1008 NOSIG
  • 211120Z 14008KT 100V160 CAVOK 04/02 Q1008 NOSIG
  • 211050Z 13008KT 090V170 CAVOK 04/01 Q1009 NOSIG
  • 211020Z 12006KT 080V150 CAVOK 03/01 Q1009 NOSIG

TAF TAF EDDK
Valid from the 21 at 12:00 until the 22 at 18:00 UTC


211100Z 2112/2218 12006KT CAVOK
BECMG 2208/2211 13011KT



MET'MAP, your aeronautical weather chart ! - Copyright ORBIFLY December 2007 - Disclaimer

ORBIFLY MET'MAP TEAM :

Programming & Development : Alexandra Zaïnal
Concept & Development : Baudouin d'Aumeries
Co-Development & Prog : Marc-Olivier Méhu
Technical & hardware support : Manuel Goepfert

Contact : metmap@orbifly.com




SOURCES & CREDITS :

   NOAA